createdAt,value
2023-04-21T00:01:39.535Z,24.75
2023-04-21T00:04:08.333Z,30.67
2023-04-21T00:06:36.690Z,29.45
2023-04-21T00:09:05.516Z,27.52
2023-04-21T00:11:33.318Z,30.95
2023-04-21T00:14:01.139Z,31.05
2023-04-21T00:16:28.970Z,32.63
2023-04-21T00:19:00.886Z,31.58
2023-04-21T00:21:28.654Z,29.58
2023-04-21T00:23:56.365Z,29.63
2023-04-21T00:26:25.036Z,32.30
2023-04-21T00:28:52.871Z,33.25
2023-04-21T00:31:20.643Z,32.67
2023-04-21T00:33:48.451Z,33.25
2023-04-21T00:36:17.575Z,33.40
2023-04-21T00:38:45.312Z,33.53
2023-04-21T00:41:13.095Z,33.80
2023-04-21T00:44:01.473Z,34.38
2023-04-21T00:46:29.650Z,34.78
2023-04-21T00:48:57.588Z,32.60
2023-04-21T00:51:27.692Z,33.97
2023-04-21T00:53:56.773Z,29.23
2023-04-21T00:56:24.585Z,32.40
2023-04-21T00:58:52.502Z,32.60
2023-04-21T01:01:20.411Z,34.58
2023-04-21T01:03:48.554Z,33.72
2023-04-21T01:06:16.509Z,32.75
2023-04-21T01:08:46.657Z,33.55
2023-04-21T01:11:14.917Z,30.77
2023-04-21T01:13:42.764Z,32.83
2023-04-21T01:16:10.594Z,34.00
2023-04-21T01:18:38.369Z,33.58
2023-04-21T01:21:07.576Z,33.67
2023-04-21T01:23:37.892Z,28.23
2023-04-21T01:26:06.305Z,33.25
2023-04-21T01:28:34.099Z,34.23
2023-04-21T01:31:02.098Z,31.48
2023-04-21T01:33:29.997Z,35.13
2023-04-21T01:35:57.853Z,34.63
2023-04-21T01:38:25.665Z,35.17
2023-04-21T01:40:55.404Z,32.17
2023-04-21T01:43:25.419Z,35.47
2023-04-21T01:45:53.910Z,36.03
2023-04-21T01:48:21.682Z,37.10
2023-04-21T01:50:49.461Z,34.17
2023-04-21T01:53:17.263Z,35.92
2023-04-21T01:55:45.045Z,31.95
2023-04-21T01:58:14.138Z,38.00
2023-04-21T02:00:41.902Z,32.80
2023-04-21T02:03:09.771Z,34.33
2023-04-21T02:05:37.629Z,36.13
2023-04-21T02:08:06.462Z,35.80
2023-04-21T02:10:34.731Z,23.55
2023-04-21T02:13:02.507Z,34.22
2023-04-21T02:15:31.724Z,37.83
2023-04-21T02:20:29.462Z,36.10
2023-04-21T02:22:57.197Z,37.35
2023-04-21T02:25:25.616Z,37.75
2023-04-21T02:27:53.390Z,36.63
2023-04-21T02:30:21.361Z,37.40
2023-04-21T02:32:50.576Z,37.33
2023-04-21T02:37:48.788Z,36.45
2023-04-21T02:40:16.650Z,35.95
2023-04-21T02:42:44.380Z,35.72
2023-04-21T02:45:12.598Z,37.05
2023-04-21T02:47:40.395Z,34.28
2023-04-21T02:50:10.682Z,36.63
2023-04-21T02:52:38.723Z,35.92
2023-04-21T02:55:07.277Z,37.33
2023-04-21T02:57:35.033Z,37.35
2023-04-21T03:00:02.763Z,36.90
2023-04-21T03:02:31.128Z,34.25
2023-04-21T03:04:59.134Z,34.53
2023-04-21T03:07:31.414Z,36.28
2023-04-21T03:09:59.216Z,33.25
2023-04-21T03:12:26.934Z,36.72
2023-04-21T03:14:54.763Z,33.30
2023-04-21T03:17:22.528Z,34.75
2023-04-21T03:19:50.355Z,35.60
2023-04-21T03:22:18.172Z,28.92
2023-04-21T03:24:48.607Z,34.45
2023-04-21T03:27:16.375Z,34.90
2023-04-21T03:29:44.122Z,36.08
2023-04-21T03:32:11.963Z,35.40
2023-04-21T03:34:39.814Z,35.90
2023-04-21T03:37:07.560Z,34.67
2023-04-21T03:39:35.357Z,37.28
2023-04-21T03:42:04.934Z,37.33
2023-04-21T03:44:32.740Z,35.47
2023-04-21T03:47:03.286Z,33.78
2023-04-21T03:49:31.616Z,33.50
2023-04-21T03:51:59.381Z,35.83
2023-04-21T03:54:27.151Z,38.25
2023-04-21T03:56:55.004Z,35.85
2023-04-21T03:59:24.186Z,38.28
2023-04-21T04:01:51.985Z,37.58
2023-04-21T04:04:20.220Z,35.90
2023-04-21T04:06:48.104Z,37.40
2023-04-21T04:09:15.862Z,38.10
2023-04-21T04:11:43.617Z,38.00
2023-04-21T04:14:11.380Z,39.30
2023-04-21T04:16:41.491Z,37.08
2023-04-21T04:19:09.533Z,39.00
2023-04-21T04:21:37.296Z,38.75
2023-04-21T04:24:05.397Z,35.33
2023-04-21T04:26:34.580Z,39.58
2023-04-21T04:29:02.422Z,37.80
2023-04-21T04:31:30.768Z,40.75
2023-04-21T04:33:59.954Z,38.77
2023-04-21T04:36:28.487Z,40.30
2023-04-21T04:38:56.321Z,41.72
2023-04-21T04:41:24.197Z,39.53
2023-04-21T04:43:52.174Z,40.13
2023-04-21T04:46:20.654Z,35.55
2023-04-21T04:48:48.731Z,41.65
2023-04-21T04:51:18.054Z,40.85
2023-04-21T04:56:13.410Z,39.85
2023-04-21T04:58:41.165Z,43.00
2023-04-21T05:01:13.850Z,40.03
2023-04-21T05:03:42.468Z,39.65
2023-04-21T05:06:10.527Z,38.80
2023-04-21T05:08:41.087Z,40.25
2023-04-21T05:11:09.123Z,39.65
2023-04-21T05:13:39.602Z,40.53
2023-04-21T05:16:10.201Z,39.25
2023-04-21T05:18:38.274Z,40.38
2023-04-21T05:21:06.183Z,39.85
2023-04-21T05:23:34.121Z,40.17
2023-04-21T05:26:04.636Z,38.67
2023-04-21T05:28:32.828Z,40.03
2023-04-21T05:31:00.609Z,38.22
2023-04-21T05:33:31.683Z,39.83
2023-04-21T05:35:59.498Z,39.28
2023-04-21T05:38:27.522Z,36.58
2023-04-21T05:40:56.088Z,38.10
2023-04-21T05:43:25.290Z,39.95
2023-04-21T05:45:53.204Z,38.92
2023-04-21T05:48:21.090Z,38.13
2023-04-21T05:50:48.851Z,38.40
2023-04-21T05:53:16.644Z,37.97
2023-04-21T05:55:44.400Z,36.85
2023-04-21T05:58:12.146Z,38.45
2023-04-21T06:00:41.272Z,38.72
2023-04-21T06:03:09.235Z,37.97
2023-04-21T06:05:37.290Z,38.00
2023-04-21T06:08:05.341Z,36.33
2023-04-21T06:10:35.270Z,36.53
2023-04-21T06:13:03.112Z,38.80
2023-04-21T06:15:30.961Z,38.00
2023-04-21T06:18:00.171Z,36.60
2023-04-21T06:22:56.373Z,37.80
2023-04-21T06:25:24.153Z,37.53
2023-04-21T06:27:51.903Z,37.08
2023-04-21T06:30:19.704Z,37.08
2023-04-21T06:32:48.661Z,37.33
2023-04-21T06:35:18.835Z,35.10
2023-04-21T06:37:46.579Z,37.38
2023-04-21T06:40:16.062Z,39.22
2023-04-21T06:42:44.113Z,37.50
2023-04-21T06:45:12.512Z,38.38
2023-04-21T06:47:40.307Z,37.85
2023-04-21T06:50:09.184Z,35.78
2023-04-21T06:52:38.313Z,36.97
2023-04-21T06:55:07.334Z,38.35
2023-04-21T06:57:35.091Z,38.42
2023-04-21T07:00:03.166Z,37.80
2023-04-21T07:02:31.433Z,37.30
2023-04-21T07:04:59.292Z,37.60
2023-04-21T07:07:27.561Z,34.85
2023-04-21T07:09:56.938Z,37.10
2023-04-21T07:12:24.766Z,37.92
2023-04-21T07:14:52.535Z,35.03
2023-04-21T07:17:20.329Z,37.67
2023-04-21T07:19:48.083Z,38.42
2023-04-21T07:22:15.878Z,36.80
2023-04-21T07:24:43.656Z,36.10
2023-04-21T07:27:13.901Z,35.95
2023-04-21T07:29:41.790Z,36.78
2023-04-21T07:32:09.553Z,36.00
2023-04-21T07:34:37.427Z,33.47
2023-04-21T07:37:05.217Z,36.08
2023-04-21T07:39:33.025Z,37.28
2023-04-21T07:42:00.809Z,37.58
2023-04-21T07:44:30.191Z,36.80
2023-04-21T07:46:57.965Z,35.65
2023-04-21T07:49:25.759Z,35.80
2023-04-21T07:51:53.626Z,34.00
2023-04-21T07:54:21.608Z,34.08
2023-04-21T07:56:49.364Z,33.60
2023-04-21T07:59:17.394Z,35.58
2023-04-21T08:01:46.846Z,31.15
2023-04-21T08:04:15.059Z,33.42
2023-04-21T08:06:43.147Z,35.90
2023-04-21T08:09:11.024Z,34.47
2023-04-21T08:11:38.868Z,34.35
2023-04-21T08:14:09.385Z,30.77
2023-04-21T08:16:37.241Z,35.15
2023-04-21T08:19:06.855Z,35.17
2023-04-21T08:21:36.301Z,33.08
2023-04-21T08:24:04.246Z,34.10
2023-04-21T08:26:33.840Z,35.53
2023-04-21T08:29:04.375Z,36.70
2023-04-21T08:31:32.583Z,38.75
2023-04-21T08:34:03.008Z,36.13
2023-04-21T08:36:32.789Z,34.38
2023-04-21T08:39:00.986Z,32.92
2023-04-21T08:41:29.148Z,35.22
2023-04-21T08:43:57.224Z,34.30
2023-04-21T08:46:26.161Z,35.08
2023-04-21T08:48:55.496Z,34.88
2023-04-21T08:53:56.044Z,36.20
2023-04-21T08:56:25.786Z,34.45
2023-04-21T08:58:53.676Z,35.92
2023-04-21T09:01:21.660Z,33.42
2023-04-21T09:03:49.676Z,35.67
2023-04-21T09:06:19.063Z,33.25
2023-04-21T09:08:56.559Z,34.15
2023-04-21T09:11:24.620Z,35.50
2023-04-21T09:13:52.952Z,36.47
2023-04-21T09:16:24.150Z,27.45
2023-04-21T09:18:54.942Z,23.98
2023-04-21T09:21:32.009Z,35.35
2023-04-21T09:24:06.479Z,35.00
2023-04-21T09:26:35.225Z,36.08
2023-04-21T09:29:10.305Z,35.72
2023-04-21T09:31:38.222Z,35.67
2023-04-21T09:34:19.648Z,36.60
2023-04-21T09:36:47.859Z,36.08
2023-04-21T09:41:47.829Z,34.47
2023-04-21T09:44:17.562Z,34.45
2023-04-21T09:46:48.321Z,31.38
2023-04-21T09:49:18.416Z,32.85
2023-04-21T09:54:28.918Z,33.92
2023-04-21T09:57:01.802Z,33.42
2023-04-21T09:59:31.816Z,31.58
2023-04-21T10:02:01.213Z,33.08
2023-04-21T10:04:30.551Z,33.13
2023-04-21T10:06:59.852Z,33.83
2023-04-21T10:09:34.739Z,32.85
2023-04-21T10:12:04.487Z,29.58
2023-04-21T10:14:32.859Z,32.38
2023-04-21T10:17:05.638Z,32.47
2023-04-21T10:19:38.768Z,31.67
2023-04-21T10:22:07.990Z,30.20
2023-04-21T10:24:40.507Z,30.27
2023-04-21T10:27:11.675Z,31.58
2023-04-21T10:29:52.361Z,33.53
2023-04-21T10:32:33.243Z,31.77
2023-04-21T10:35:01.440Z,30.38
2023-04-21T10:37:32.501Z,33.22
2023-04-21T10:40:01.698Z,26.00
2023-04-21T10:42:36.960Z,30.55
2023-04-21T10:45:12.338Z,31.42
2023-04-21T10:47:46.318Z,28.42
2023-04-21T10:50:25.799Z,30.85
2023-04-21T10:52:59.336Z,33.08
2023-04-21T10:55:30.004Z,31.48
2023-04-21T10:57:59.263Z,29.10
2023-04-21T11:00:27.379Z,32.30
2023-04-21T11:02:57.025Z,26.88
2023-04-21T11:05:34.739Z,23.48
2023-04-21T11:08:11.356Z,29.80
2023-04-21T11:10:53.040Z,31.90
2023-04-21T11:13:25.400Z,32.70
2023-04-21T11:16:01.546Z,31.20
2023-04-21T11:18:41.236Z,29.52
2023-04-21T11:21:13.902Z,29.10
2023-04-21T11:23:42.734Z,30.05
2023-04-21T11:26:11.882Z,31.15
2023-04-21T11:28:41.502Z,30.80
2023-04-21T11:31:09.445Z,32.03
2023-04-21T11:33:37.777Z,29.85
2023-04-21T11:36:06.860Z,32.67
2023-04-21T11:41:10.728Z,31.92
2023-04-21T11:43:40.244Z,27.77
2023-04-21T11:46:24.760Z,24.55
2023-04-21T11:49:02.932Z,30.55
2023-04-21T11:51:34.439Z,34.43
2023-04-21T11:54:02.811Z,32.88
2023-04-21T11:56:30.676Z,31.98
2023-04-21T11:58:59.823Z,33.25
2023-04-21T12:01:27.991Z,30.05
2023-04-21T12:03:57.028Z,29.88
2023-04-21T12:06:27.124Z,29.88
2023-04-21T12:08:59.041Z,29.23
2023-04-21T12:11:28.294Z,29.05
2023-04-21T12:13:59.548Z,30.15
2023-04-21T12:16:28.426Z,26.15
2023-04-21T12:21:28.415Z,28.00
2023-04-21T12:23:56.399Z,27.20
2023-04-21T12:26:24.918Z,28.50
2023-04-21T12:28:53.129Z,26.98
2023-04-21T12:31:22.363Z,27.08
2023-04-21T12:33:50.231Z,25.10
2023-04-21T12:36:18.332Z,28.70
2023-04-21T12:38:46.219Z,27.73
2023-04-21T12:41:14.083Z,27.30
2023-04-21T12:43:41.921Z,27.83
2023-04-21T12:46:10.054Z,22.33
2023-04-21T12:48:39.363Z,26.98
2023-04-21T12:51:07.371Z,26.52
2023-04-21T12:53:36.809Z,28.33
2023-04-21T12:56:05.601Z,27.92
2023-04-21T13:01:01.171Z,25.90
2023-04-21T13:03:31.052Z,27.30
2023-04-21T13:06:00.319Z,24.65
2023-04-21T13:08:28.154Z,28.05
2023-04-21T13:10:55.991Z,27.45
2023-04-21T13:13:23.872Z,28.75
2023-04-21T13:15:51.834Z,29.65
2023-04-21T13:18:19.767Z,28.23
2023-04-21T13:20:47.549Z,28.30
2023-04-21T13:23:16.811Z,25.55
2023-04-21T13:25:46.382Z,24.17
2023-04-21T13:28:14.932Z,24.23
2023-04-21T13:30:42.905Z,26.05
2023-04-21T13:33:10.995Z,20.77
2023-04-21T13:35:39.005Z,26.70
2023-04-21T13:38:06.847Z,26.65
2023-04-21T13:40:36.128Z,28.02
2023-04-21T13:43:04.052Z,28.42
2023-04-21T13:45:31.996Z,28.70
2023-04-21T13:47:59.886Z,29.27
2023-04-21T13:50:27.882Z,26.40
2023-04-21T13:52:55.765Z,27.73
2023-04-21T13:55:23.599Z,27.27
2023-04-21T13:57:52.873Z,27.50
2023-04-21T14:00:22.046Z,27.33
2023-04-21T14:02:50.281Z,28.33
2023-04-21T14:05:18.855Z,28.40
2023-04-21T14:07:46.820Z,26.50
2023-04-21T14:10:14.797Z,25.87
2023-04-21T14:12:44.919Z,25.03
2023-04-21T14:15:14.498Z,23.98
2023-04-21T14:17:42.622Z,25.00
2023-04-21T14:20:11.278Z,23.83
2023-04-21T14:22:39.099Z,25.35
2023-04-21T14:25:07.266Z,25.55
2023-04-21T14:27:45.249Z,24.83
2023-04-21T14:30:15.753Z,24.17
2023-04-21T14:32:45.578Z,23.05
2023-04-21T14:35:13.989Z,24.40
2023-04-21T14:37:42.409Z,24.50
2023-04-21T14:40:11.155Z,22.70
2023-04-21T14:42:38.976Z,24.17
2023-04-21T14:45:07.799Z,24.50
2023-04-21T14:47:38.015Z,23.27
2023-04-21T14:50:07.387Z,24.17
2023-04-21T14:52:36.106Z,22.17
2023-04-21T14:55:04.498Z,21.30
2023-04-21T14:57:32.414Z,23.90
2023-04-21T15:00:00.364Z,22.70
2023-04-21T15:02:28.929Z,24.37
2023-04-21T15:04:58.948Z,24.30
2023-04-21T15:07:26.731Z,23.48
2023-04-21T15:09:55.438Z,23.98
2023-04-21T15:14:51.421Z,22.48
2023-04-21T15:17:19.343Z,20.85
2023-04-21T15:19:47.197Z,22.73
2023-04-21T15:22:16.497Z,22.40
2023-04-21T15:24:47.408Z,21.67
2023-04-21T15:27:15.248Z,21.50
2023-04-21T15:29:43.185Z,21.75
2023-04-21T15:32:11.200Z,21.98
2023-04-21T15:34:39.210Z,22.60
2023-04-21T15:37:07.663Z,22.07
2023-04-21T15:39:37.178Z,21.60
2023-04-21T15:42:05.575Z,21.70
2023-04-21T15:44:34.297Z,22.90
2023-04-21T15:49:30.138Z,20.80
2023-04-21T15:51:58.196Z,21.40
2023-04-21T15:54:26.062Z,22.30
2023-04-21T15:56:55.841Z,22.08
2023-04-21T15:59:25.778Z,24.13
2023-04-21T16:01:54.027Z,23.80
2023-04-21T16:04:22.202Z,23.00
2023-04-21T16:06:50.196Z,23.52
2023-04-21T16:09:18.208Z,23.02
2023-04-21T16:11:46.213Z,22.67
2023-04-21T16:14:16.634Z,22.53
2023-04-21T16:16:44.608Z,22.83
2023-04-21T16:19:12.837Z,22.50
2023-04-21T16:21:40.838Z,23.67
2023-04-21T16:24:09.885Z,22.67
2023-04-21T16:29:05.573Z,21.98
2023-04-21T16:31:34.834Z,21.05
2023-04-21T16:34:02.850Z,22.15
2023-04-21T16:36:31.436Z,20.67
2023-04-21T16:38:59.837Z,21.08
2023-04-21T16:41:27.766Z,21.33
2023-04-21T16:43:55.693Z,20.83
2023-04-21T16:46:24.953Z,20.40
2023-04-21T16:48:54.317Z,20.40
2023-04-21T16:51:22.789Z,20.50
2023-04-21T16:53:53.418Z,19.83
2023-04-21T16:56:21.735Z,20.02
2023-04-21T16:58:49.643Z,18.60
2023-04-21T17:01:17.583Z,20.02
2023-04-21T17:03:45.987Z,20.17
2023-04-21T17:06:19.486Z,20.20
2023-04-21T17:08:47.259Z,20.33
2023-04-21T17:11:15.101Z,21.45
2023-04-21T17:13:42.945Z,20.20
2023-04-21T17:16:10.774Z,20.38
2023-04-21T17:18:38.630Z,19.85
2023-04-21T17:21:07.056Z,20.17
2023-04-21T17:23:36.277Z,20.63
2023-04-21T17:26:05.134Z,20.45
2023-04-21T17:28:33.639Z,20.17
2023-04-21T17:31:14.470Z,20.63
2023-04-21T17:33:43.366Z,20.02
2023-04-21T17:36:11.259Z,20.63
2023-04-21T17:38:42.609Z,22.05
2023-04-21T17:41:10.669Z,22.27
2023-04-21T17:43:38.476Z,22.80
2023-04-21T17:46:07.440Z,21.65
2023-04-21T17:48:35.378Z,21.70
2023-04-21T17:51:04.007Z,20.63
2023-04-21T17:53:32.135Z,22.30
2023-04-21T17:56:01.596Z,22.40
2023-04-21T17:58:29.573Z,21.88
2023-04-21T18:00:57.514Z,20.98
2023-04-21T18:03:25.791Z,21.30
2023-04-21T18:05:53.822Z,21.88
2023-04-21T18:08:22.022Z,20.85
2023-04-21T18:10:49.838Z,21.48
2023-04-21T18:13:18.958Z,20.55
2023-04-21T18:15:46.770Z,21.02
2023-04-21T18:18:14.637Z,20.63
2023-04-21T18:20:42.428Z,19.92
2023-04-21T18:23:10.250Z,20.77
2023-04-21T18:25:42.743Z,20.77
2023-04-21T18:28:12.754Z,19.90
2023-04-21T18:30:42.541Z,20.40
2023-04-21T18:33:10.926Z,19.08
2023-04-21T18:35:38.965Z,18.17
2023-04-21T18:38:08.297Z,17.73
2023-04-21T18:40:37.304Z,17.45
2023-04-21T18:45:32.964Z,16.80
2023-04-21T18:48:02.207Z,17.50
2023-04-21T18:50:30.712Z,17.67
2023-04-21T18:52:58.599Z,18.17
2023-04-21T18:55:26.413Z,16.88
2023-04-21T18:57:54.231Z,17.58
2023-04-21T19:00:22.321Z,17.10
2023-04-21T19:02:51.336Z,16.60
2023-04-21T19:07:48.720Z,16.75
2023-04-21T19:10:16.810Z,17.33
2023-04-21T19:12:45.180Z,17.00
2023-04-21T19:15:13.322Z,16.92
2023-04-21T19:17:41.720Z,17.10
2023-04-21T19:20:10.954Z,16.67
2023-04-21T19:22:40.358Z,16.73
2023-04-21T19:25:08.663Z,17.42
2023-04-21T19:27:37.227Z,17.10
2023-04-21T19:30:06.721Z,17.13
2023-04-21T19:32:34.644Z,17.88
2023-04-21T19:35:02.781Z,18.23
2023-04-21T19:37:32.256Z,17.60
2023-04-21T19:40:02.986Z,17.02
2023-04-21T19:42:31.480Z,18.08
2023-04-21T19:44:59.394Z,17.77
2023-04-21T19:47:27.280Z,17.95
2023-04-21T19:49:55.165Z,16.60
2023-04-21T19:52:23.015Z,17.17
2023-04-21T19:54:50.819Z,17.40
2023-04-21T19:57:20.067Z,17.42
2023-04-21T19:59:49.089Z,17.58
2023-04-21T20:02:20.112Z,17.20
2023-04-21T20:04:51.643Z,16.10
2023-04-21T20:07:19.725Z,15.68
2023-04-21T20:09:47.624Z,15.32
2023-04-21T20:12:15.781Z,16.10
2023-04-21T20:14:45.017Z,15.20
2023-04-21T20:17:12.938Z,15.05
2023-04-21T20:19:40.976Z,15.27
2023-04-21T20:22:09.039Z,14.90
2023-04-21T20:24:36.839Z,15.30
2023-04-21T20:27:06.587Z,14.70
2023-04-21T20:29:36.619Z,15.25
2023-04-21T20:32:06.049Z,14.88
2023-04-21T20:34:34.012Z,15.95
2023-04-21T20:37:01.892Z,15.63
2023-04-21T20:39:29.741Z,15.95
2023-04-21T20:42:11.953Z,16.02
2023-04-21T20:44:42.505Z,16.42
2023-04-21T20:47:12.613Z,16.55
2023-04-21T20:49:40.939Z,16.92
2023-04-21T20:52:09.038Z,16.85
2023-04-21T20:54:36.874Z,16.00
2023-04-21T20:57:07.333Z,16.90
2023-04-21T20:59:35.676Z,17.48
2023-04-21T21:02:03.925Z,17.90
2023-04-21T21:04:33.461Z,18.05
2023-04-21T21:07:01.313Z,18.35
2023-04-21T21:09:29.283Z,17.45
2023-04-21T21:11:57.199Z,17.70
2023-04-21T21:14:25.016Z,18.77
2023-04-21T21:16:54.676Z,18.30
2023-04-21T21:19:22.714Z,18.17
2023-04-21T21:21:51.952Z,17.70
2023-04-21T21:26:47.427Z,18.08
2023-04-21T21:29:15.278Z,18.63
2023-04-21T21:31:43.298Z,18.75
2023-04-21T21:34:11.096Z,19.08
2023-04-21T21:36:38.930Z,19.10
2023-04-21T21:39:11.004Z,19.08
2023-04-21T21:41:39.758Z,19.25
2023-04-21T21:44:07.723Z,18.60
2023-04-21T21:46:35.632Z,18.38
2023-04-21T21:49:03.847Z,18.95
2023-04-21T21:51:32.588Z,19.10
2023-04-21T21:54:00.335Z,18.95
2023-04-21T21:56:29.782Z,19.05
2023-04-21T21:58:57.866Z,19.13
2023-04-21T22:01:25.779Z,19.48
2023-04-21T22:03:53.883Z,19.17
2023-04-21T22:06:24.380Z,19.25
2023-04-21T22:08:52.725Z,19.50
2023-04-21T22:11:20.923Z,19.50
2023-04-21T22:13:50.064Z,18.98
2023-04-21T22:16:18.666Z,19.13
2023-04-21T22:18:48.579Z,18.55
2023-04-21T22:21:16.559Z,19.85
2023-04-21T22:23:44.379Z,19.58
2023-04-21T22:26:12.162Z,18.75
2023-04-21T22:28:41.700Z,19.08
2023-04-21T22:31:11.559Z,20.13
2023-04-21T22:33:39.418Z,19.98
2023-04-21T22:36:09.881Z,19.10
2023-04-21T22:38:38.300Z,18.60
2023-04-21T22:41:06.674Z,19.23
2023-04-21T22:43:34.473Z,19.58
2023-04-21T22:46:03.172Z,20.30
2023-04-21T22:48:32.813Z,19.25
2023-04-21T22:51:01.639Z,19.48
2023-04-21T22:53:29.757Z,19.40
2023-04-21T22:55:57.705Z,19.75
2023-04-21T22:58:26.062Z,20.27
2023-04-21T23:00:53.987Z,19.67
2023-04-21T23:03:22.013Z,18.60
2023-04-21T23:05:51.248Z,19.15
2023-04-21T23:08:19.051Z,18.90
2023-04-21T23:10:47.463Z,18.80
2023-04-21T23:13:15.262Z,19.40
2023-04-21T23:15:42.994Z,19.48
2023-04-21T23:18:10.860Z,18.65
2023-04-21T23:20:38.752Z,19.92
2023-04-21T23:23:07.907Z,20.00
2023-04-21T23:25:36.242Z,20.42
2023-04-21T23:28:04.094Z,21.23
2023-04-21T23:30:32.053Z,20.30
2023-04-21T23:32:59.876Z,20.88
2023-04-21T23:35:27.721Z,20.50
2023-04-21T23:37:55.682Z,21.25
2023-04-21T23:40:24.973Z,20.48
2023-04-21T23:45:20.768Z,19.80
2023-04-21T23:47:48.648Z,22.23
2023-04-21T23:50:16.420Z,21.67
2023-04-21T23:52:44.810Z,21.95
2023-04-21T23:55:12.997Z,22.47
2023-04-21T23:57:44.550Z,21.27
